Time;durP1;ratioP1;P1;durP2;ratioP2;P2;SDS_P1;SDS_P2;PMS_P1;PMS_P2;Temp;Humidity;BMP_temperature;BMP_pressure;BME280_temperature;BME280_humidity;BME280_pressure;Samples;Min_cycle;Max_cycle;Signal;HPM_P1;HPM_P2
2021/06/11 00:00:09;;;;;;;11.02;4.40;;;20.20;99.90;;;;;;5072497;28;20221;-80
2021/06/11 00:02:35;;;;;;;8.05;3.47;;;20.10;99.90;;;;;;5072244;28;20626;-80
2021/06/11 00:05:00;;;;;;;15.10;4.97;;;20.10;99.90;;;;;;5072608;28;20246;-80
2021/06/11 00:07:29;;;;;;;12.65;4.18;;;20.20;99.90;;;;;;5072625;28;20198;-80
2021/06/11 00:09:55;;;;;;;15.20;4.68;;;20.10;99.90;;;;;;5071988;28;20186;-80
2021/06/11 00:12:20;;;;;;;12.02;4.18;;;20.10;99.90;;;;;;5072032;28;20235;-80
2021/06/11 00:14:46;;;;;;;11.13;4.13;;;20.00;99.90;;;;;;5071965;28;20169;-80
2021/06/11 00:17:12;;;;;;;17.00;4.00;;;19.90;99.90;;;;;;5071861;28;20254;-80
2021/06/11 00:19:38;;;;;;;10.98;3.53;;;20.00;99.90;;;;;;5071990;28;20167;-80
2021/06/11 00:22:06;;;;;;;15.52;5.22;;;20.00;99.90;;;;;;5072258;28;20167;-80
2021/06/11 00:24:32;;;;;;;12.98;3.70;;;20.00;99.90;;;;;;5072337;28;20193;-80
2021/06/11 00:26:58;;;;;;;16.67;4.43;;;19.80;99.90;;;;;;5072348;28;20199;-80
2021/06/11 00:29:24;;;;;;;11.88;3.47;;;19.80;99.90;;;;;;5072333;28;20181;-80
2021/06/11 00:31:49;;;;;;;10.00;3.78;;;19.90;99.90;;;;;;5070640;28;20205;-80
2021/06/11 00:34:15;;;;;;;12.93;3.85;;;20.00;99.90;;;;;;5070658;28;20261;-80
2021/06/11 00:36:41;;;;;;;13.00;3.67;;;19.80;99.90;;;;;;5072304;28;20744;-80
2021/06/11 00:39:06;;;;;;;9.32;3.15;;;19.70;99.90;;;;;;5070088;28;20554;-80
2021/06/11 00:41:32;;;;;;;10.07;4.30;;;19.70;99.90;;;;;;5071876;28;20220;-80
2021/06/11 00:43:58;;;;;;;5.82;3.50;;;19.80;99.90;;;;;;5072124;28;20158;-80
2021/06/11 00:46:24;;;;;;;6.68;3.92;;;19.90;99.90;;;;;;5072252;28;20170;-80
2021/06/11 00:48:49;;;;;;;15.15;4.97;;;19.90;99.90;;;;;;5070990;28;20258;-80
2021/06/11 00:51:15;;;;;;;20.10;4.35;;;20.00;99.90;;;;;;5074442;28;20297;-80
2021/06/11 00:53:41;;;;;;;9.15;4.35;;;19.90;99.90;;;;;;5076317;28;20166;-80
2021/06/11 00:56:07;;;;;;;16.52;3.38;;;19.90;99.90;;;;;;5075321;28;20167;-80
2021/06/11 00:58:33;;;;;;;14.55;4.72;;;19.70;99.90;;;;;;5075186;28;20166;-79
2021/06/11 01:00:58;;;;;;;8.93;4.03;;;19.60;99.90;;;;;;5074487;28;20196;-80
2021/06/11 01:03:24;;;;;;;15.00;3.70;;;19.50;99.90;;;;;;5075006;28;20255;-81
2021/06/11 01:05:51;;;;;;;10.30;3.90;;;19.40;99.90;;;;;;5076023;28;20532;-80
2021/06/11 01:08:18;;;;;;;15.70;5.20;;;19.40;99.90;;;;;;5075542;28;20170;-80
2021/06/11 01:10:46;;;;;;;8.63;3.63;;;19.10;99.90;;;;;;5075652;28;20210;-80
2021/06/11 01:13:17;;;;;;;12.63;4.28;;;19.10;99.90;;;;;;5084345;28;20239;-80
2021/06/11 01:15:43;;;;;;;21.13;4.95;;;19.10;99.90;;;;;;5086656;28;20169;-80
2021/06/11 01:18:10;;;;;;;21.25;4.32;;;19.30;99.90;;;;;;5088373;28;20251;-79
2021/06/11 01:20:36;;;;;;;15.35;4.65;;;19.30;99.90;;;;;;5083228;28;20613;-79
2021/06/11 01:23:28;;;;;;;14.77;5.03;;;19.20;99.90;;;;;;5076032;28;20178;-80
2021/06/11 01:25:59;;;;;;;26.88;4.25;;;19.00;99.90;;;;;;5075611;28;20193;-80
2021/06/11 01:28:27;;;;;;;12.13;5.45;;;18.90;99.90;;;;;;5073905;28;20201;-80
2021/06/11 01:30:56;;;;;;;16.20;5.28;;;19.00;99.90;;;;;;5073492;28;20573;-80
2021/06/11 01:33:25;;;;;;;14.40;4.93;;;18.90;99.90;;;;;;5075393;28;20538;-80
2021/06/11 01:35:59;;;;;;;18.35;7.25;;;18.80;99.90;;;;;;5073747;28;20247;-81
2021/06/11 01:38:36;;;;;;;23.40;5.57;;;18.90;99.90;;;;;;5076066;28;20196;-81
2021/06/11 01:41:07;;;;;;;14.43;3.95;;;18.90;99.90;;;;;;5073890;28;20248;-81
2021/06/11 01:43:35;;;;;;;19.50;4.03;;;18.90;99.90;;;;;;5077646;28;20227;-82
2021/06/11 01:46:00;;;;;;;13.23;4.38;;;18.90;99.90;;;;;;5081638;28;20163;-81
2021/06/11 01:48:28;;;;;;;14.80;4.22;;;18.90;99.90;;;;;;5079434;28;20205;-80
2021/06/11 01:50:56;;;;;;;12.60;4.00;;;18.80;99.90;;;;;;5078822;28;20222;-80
2021/06/11 01:53:23;;;;;;;10.70;4.38;;;18.80;99.90;;;;;;5076966;28;20171;-81
2021/06/11 01:55:50;;;;;;;16.90;5.18;;;18.90;99.90;;;;;;5078074;28;20174;-81
2021/06/11 01:58:18;;;;;;;13.43;3.90;;;18.90;99.90;;;;;;5077543;28;20170;-79
2021/06/11 02:00:45;;;;;;;13.73;4.35;;;18.70;99.90;;;;;;5074634;28;20190;-80
2021/06/11 02:03:16;;;;;;;11.88;4.35;;;18.80;99.90;;;;;;5077072;28;20159;-80
2021/06/11 02:05:43;;;;;;;10.80;3.78;;;18.60;99.90;;;;;;5079155;28;20178;-80
2021/06/11 02:08:11;;;;;;;10.63;4.18;;;18.50;99.90;;;;;;5077825;28;20181;-81
2021/06/11 02:10:37;;;;;;;10.60;3.67;;;18.40;99.90;;;;;;5076622;28;20194;-80
2021/06/11 02:13:03;;;;;;;13.43;4.30;;;18.40;99.90;;;;;;5076588;28;20711;-82
2021/06/11 02:15:29;;;;;;;9.15;3.22;;;18.40;99.90;;;;;;5075518;28;20163;-80
2021/06/11 02:18:00;;;;;;;8.35;3.65;;;18.50;99.90;;;;;;5075400;28;20178;-80
2021/06/11 02:20:26;;;;;;;11.20;3.92;;;18.60;99.90;;;;;;5074807;28;20174;-80
2021/06/11 02:22:53;;;;;;;10.00;3.40;;;18.70;99.90;;;;;;5074923;28;20206;-79
2021/06/11 02:25:24;;;;;;;11.25;3.47;;;18.80;99.90;;;;;;5076089;28;20177;-80
2021/06/11 02:27:49;;;;;;;10.27;4.28;;;18.70;99.90;;;;;;5076211;28;20630;-81
2021/06/11 02:30:18;;;;;;;9.35;4.07;;;18.50;99.90;;;;;;5074874;28;20198;-80
2021/06/11 02:32:44;;;;;;;12.27;4.18;;;18.40;99.90;;;;;;5076083;28;20204;-81
2021/06/11 02:35:20;;;;;;;12.32;4.07;;;18.40;99.90;;;;;;5075443;28;20203;-81
2021/06/11 02:37:47;;;;;;;16.50;3.20;;;18.40;99.90;;;;;;5074194;28;20162;-80
2021/06/11 02:40:14;;;;;;;10.15;3.78;;;18.50;99.90;;;;;;5073252;28;20217;-80
2021/06/11 02:42:45;;;;;;;14.32;4.20;;;18.40;99.90;;;;;;5073556;28;20167;-81
2021/06/11 02:45:14;;;;;;;11.70;3.83;;;18.30;99.90;;;;;;5073704;28;20167;-80
2021/06/11 02:47:49;;;;;;;11.20;4.00;;;18.50;99.90;;;;;;5074108;28;20177;-81
2021/06/11 02:50:35;;;;;;;8.02;4.20;;;18.50;99.90;;;;;;5073821;28;20691;-80
2021/06/11 02:53:06;;;;;;;15.55;4.40;;;18.40;99.90;;;;;;5072028;28;20178;-81
2021/06/11 02:55:39;;;;;;;9.13;4.03;;;18.50;99.90;;;;;;5072478;28;20177;-81
2021/06/11 02:58:15;;;;;;;13.15;4.40;;;18.50;99.90;;;;;;5072450;28;20173;-81
2021/06/11 03:00:42;;;;;;;10.82;4.03;;;18.30;99.90;;;;;;5072991;28;20201;-81
2021/06/11 03:03:27;;;;;;;12.07;3.75;;;18.30;99.90;;;;;;5073257;28;20789;-81
2021/06/11 03:05:57;;;;;;;7.65;4.05;;;18.30;99.90;;;;;;5072078;28;20174;-81
2021/06/11 03:08:26;;;;;;;11.60;3.75;;;18.20;99.90;;;;;;5073646;28;20185;-81
2021/06/11 03:10:57;;;;;;;13.70;4.13;;;18.20;99.90;;;;;;5073167;28;20223;-81
2021/06/11 03:13:25;;;;;;;9.73;3.70;;;18.30;99.90;;;;;;5072770;28;20336;-81
2021/06/11 03:15:51;;;;;;;8.50;3.72;;;18.30;99.90;;;;;;5072789;28;20163;-79
2021/06/11 03:18:41;;;;;;;8.52;3.60;;;18.30;99.90;;;;;;5073131;28;20224;-80
2021/06/11 03:21:23;;;;;;;10.25;5.00;;;18.50;99.90;;;;;;5066685;28;20285;-80
2021/06/11 03:24:07;;;;;;;9.30;3.17;;;18.50;99.90;;;;;;5075700;28;20259;-80
2021/06/11 03:26:53;;;;;;;12.93;4.43;;;18.40;99.90;;;;;;5076511;28;20206;-80
2021/06/11 03:29:29;;;;;;;8.85;3.65;;;18.40;99.90;;;;;;5076501;28;20194;-80
2021/06/11 03:32:22;;;;;;;14.05;4.68;;;18.30;99.90;;;;;;5078284;28;20241;-80
2021/06/11 03:34:50;;;;;;;10.90;4.18;;;18.10;99.90;;;;;;5076517;28;20178;-80
2021/06/11 03:37:17;;;;;;;10.80;4.50;;;18.20;99.90;;;;;;5078681;28;20236;-80
2021/06/11 03:39:53;;;;;;;16.58;5.03;;;18.30;99.90;;;;;;5078611;28;20190;-80
2021/06/11 03:42:20;;;;;;;20.25;5.45;;;18.30;99.90;;;;;;5075752;28;20154;-80
2021/06/11 03:44:49;;;;;;;19.33;5.70;;;18.30;99.90;;;;;;5075420;28;20173;-80
2021/06/11 03:47:19;;;;;;;10.57;5.40;;;18.40;99.90;;;;;;5076620;28;20189;-80
2021/06/11 03:49:49;;;;;;;7.38;5.68;;;18.30;99.90;;;;;;5077843;28;20193;-80
2021/06/11 03:52:19;;;;;;;18.77;6.38;;;18.20;99.90;;;;;;5075202;28;20262;-80
2021/06/11 03:54:46;;;;;;;13.63;6.53;;;18.30;99.90;;;;;;5079663;28;20174;-81
2021/06/11 03:57:52;;;;;;;11.48;6.85;;;18.50;99.90;;;;;;5083448;28;20162;-80
2021/06/11 04:00:14;;;;;;;16.63;6.88;;;18.60;99.90;;;;;;5082797;28;20683;-80
2021/06/11 04:02:40;;;;;;;11.50;6.90;;;18.80;99.90;;;;;;5082264;28;20166;-80
2021/06/11 04:05:17;;;;;;;16.55;7.35;;;19.10;99.90;;;;;;5084979;28;20173;-81
2021/06/11 04:07:51;;;;;;;9.00;4.82;;;19.50;99.90;;;;;;5078833;28;20243;-81
2021/06/11 04:10:30;;;;;;;8.25;5.07;;;19.90;99.90;;;;;;5080123;28;20208;-80
2021/06/11 04:13:13;;;;;;;8.02;4.93;;;20.30;99.90;;;;;;5078401;28;20242;-81
2021/06/11 04:15:42;;;;;;;6.90;5.07;;;20.80;99.90;;;;;;5077383;28;20232;-79
2021/06/11 04:18:11;;;;;;;7.22;4.93;;;21.20;99.90;;;;;;5077146;28;20573;-80
2021/06/11 04:20:40;;;;;;;14.35;6.10;;;21.30;99.90;;;;;;5081680;28;20174;-79
2021/06/11 04:23:07;;;;;;;14.50;6.07;;;21.10;99.90;;;;;;5082139;28;20249;-80
2021/06/11 04:25:38;;;;;;;14.45;6.63;;;20.90;99.90;;;;;;5078082;28;20178;-80
2021/06/11 04:28:06;;;;;;;8.80;5.43;;;20.80;99.90;;;;;;5079272;28;20177;-81
2021/06/11 04:30:35;;;;;;;6.57;4.22;;;20.30;99.90;;;;;;5078005;28;20206;-81
2021/06/11 04:33:00;;;;;;;12.18;5.78;;;20.30;99.90;;;;;;5076611;28;20276;-82
2021/06/11 04:35:32;;;;;;;15.80;5.68;;;20.30;99.90;;;;;;5076791;28;20643;-80
2021/06/11 04:37:58;;;;;;;5.72;4.60;;;20.40;99.90;;;;;;5076691;28;20166;-79
2021/06/11 04:40:24;;;;;;;7.53;5.10;;;20.40;99.90;;;;;;5076198;28;20209;-79
2021/06/11 04:42:50;;;;;;;14.15;5.72;;;20.00;99.90;;;;;;5076047;28;20181;-80
2021/06/11 04:45:15;;;;;;;9.57;5.28;;;19.80;99.90;;;;;;5074932;28;20185;-79
2021/06/11 04:47:41;;;;;;;13.38;5.43;;;19.90;99.90;;;;;;5076507;28;20178;-79
2021/06/11 04:50:07;;;;;;;5.90;5.20;;;19.90;99.90;;;;;;5075785;28;20300;-81
2021/06/11 04:52:33;;;;;;;8.98;4.90;;;19.80;99.90;;;;;;5076012;28;20201;-80
2021/06/11 04:54:58;;;;;;;9.93;5.05;;;19.70;99.90;;;;;;5074584;28;20623;-80
2021/06/11 04:57:24;;;;;;;6.22;4.45;;;19.90;99.90;;;;;;5076145;28;20174;-81
2021/06/11 04:59:49;;;;;;;10.65;4.88;;;20.10;99.90;;;;;;5075901;28;20282;-81
2021/06/11 05:02:15;;;;;;;8.13;4.82;;;19.90;99.90;;;;;;5076636;28;20246;-81
2021/06/11 05:04:41;;;;;;;5.03;4.10;;;20.00;99.90;;;;;;5076833;28;20175;-79
2021/06/11 05:07:06;;;;;;;7.80;5.20;;;19.90;99.90;;;;;;5077153;28;20178;-81
2021/06/11 05:09:32;;;;;;;8.07;4.75;;;19.90;99.90;;;;;;5075412;28;20210;-81
2021/06/11 05:11:58;;;;;;;4.50;4.03;;;19.90;99.90;;;;;;5076351;28;20666;-81
2021/06/11 05:14:24;;;;;;;10.60;4.32;;;19.90;99.90;;;;;;5074723;28;20175;-81
2021/06/11 05:16:49;;;;;;;8.73;3.75;;;19.90;99.90;;;;;;5076225;28;20167;-79
2021/06/11 05:19:15;;;;;;;13.65;5.55;;;19.80;99.90;;;;;;5075821;28;20174;-81
2021/06/11 05:21:41;;;;;;;7.32;4.35;;;20.10;99.90;;;;;;5075975;28;20281;-79
2021/06/11 05:24:07;;;;;;;6.50;3.40;;;20.00;99.90;;;;;;5075839;28;20162;-80
2021/06/11 05:26:33;;;;;;;7.75;3.72;;;19.80;99.90;;;;;;5076378;28;20181;-80
2021/06/11 05:28:58;;;;;;;7.60;3.80;;;19.80;99.90;;;;;;5076229;28;20195;-80
2021/06/11 05:31:24;;;;;;;3.33;2.83;;;19.80;99.90;;;;;;5077425;28;20217;-80
2021/06/11 05:33:50;;;;;;;15.68;3.78;;;19.70;99.90;;;;;;5076327;28;20170;-80
2021/06/11 05:36:16;;;;;;;10.30;3.60;;;19.70;99.90;;;;;;5075589;28;20295;-80
2021/06/11 05:38:42;;;;;;;5.97;3.97;;;19.80;99.90;;;;;;5074891;28;20189;-80
2021/06/11 05:41:08;;;;;;;5.45;2.65;;;19.80;99.90;;;;;;5073523;28;20202;-80
2021/06/11 05:43:34;;;;;;;6.95;3.38;;;19.80;99.90;;;;;;5075234;28;20571;-80
2021/06/11 05:46:00;;;;;;;7.07;2.60;;;20.00;99.90;;;;;;5073318;28;20180;-80
2021/06/11 05:48:26;;;;;;;3.90;2.50;;;20.00;99.90;;;;;;5073592;28;20162;-81
2021/06/11 05:50:51;;;;;;;5.50;3.40;;;20.10;99.90;;;;;;5074798;28;20212;-81
2021/06/11 05:53:23;;;;;;;3.15;2.80;;;20.20;99.90;;;;;;5074681;28;20514;-81
2021/06/11 05:55:51;;;;;;;2.85;2.53;;;20.10;99.90;;;;;;5073514;28;20514;-81
2021/06/11 05:58:18;;;;;;;8.15;3.30;;;20.10;99.90;;;;;;5075073;28;20162;-81
2021/06/11 06:00:44;;;;;;;6.07;3.55;;;20.10;99.90;;;;;;5073613;28;20671;-81
2021/06/11 06:03:10;;;;;;;4.13;2.65;;;20.20;99.90;;;;;;5074963;28;20174;-81
2021/06/11 06:05:35;;;;;;;8.90;3.30;;;20.40;99.90;;;;;;5074572;28;20212;-81
2021/06/11 06:08:01;;;;;;;4.57;2.50;;;20.40;99.90;;;;;;5074338;28;20630;-80
2021/06/11 06:10:27;;;;;;;4.05;2.88;;;20.50;99.90;;;;;;5074720;28;20194;-80
2021/06/11 06:12:53;;;;;;;12.93;2.97;;;20.40;99.90;;;;;;5074782;28;20270;-81
2021/06/11 06:15:18;;;;;;;4.38;2.70;;;20.40;99.90;;;;;;5073366;28;20170;-81
2021/06/11 06:17:44;;;;;;;3.20;2.50;;;20.50;99.90;;;;;;5074115;28;20352;-80
2021/06/11 06:20:11;;;;;;;6.65;2.63;;;20.50;99.90;;;;;;5073048;28;20647;-82
2021/06/11 06:22:37;;;;;;;3.08;2.78;;;20.60;99.90;;;;;;5079031;28;20257;-82
2021/06/11 06:25:04;;;;;;;13.52;2.60;;;20.60;99.90;;;;;;5073376;28;20627;-82
2021/06/11 06:27:30;;;;;;;4.35;3.20;;;20.70;99.90;;;;;;5073760;28;20215;-81
2021/06/11 06:29:56;;;;;;;6.88;3.40;;;20.70;99.90;;;;;;5072733;28;20632;-80
2021/06/11 06:32:22;;;;;;;4.07;3.22;;;20.60;99.90;;;;;;5073408;28;20216;-83
2021/06/11 06:34:47;;;;;;;4.30;3.08;;;20.60;99.90;;;;;;5075466;28;20170;-82
2021/06/11 06:37:14;;;;;;;3.20;2.47;;;20.70;99.90;;;;;;5074021;28;20209;-81
2021/06/11 06:39:40;;;;;;;4.35;2.45;;;20.80;99.90;;;;;;5075883;28;20631;-82
2021/06/11 06:42:07;;;;;;;4.50;2.20;;;20.90;99.90;;;;;;5073778;28;20161;-80
2021/06/11 06:44:33;;;;;;;2.53;2.03;;;21.00;99.90;;;;;;5073883;28;20626;-81
2021/06/11 06:46:59;;;;;;;3.10;2.00;;;21.00;99.90;;;;;;5073701;28;20204;-81
2021/06/11 06:49:25;;;;;;;2.00;1.80;;;21.10;99.90;;;;;;5057594;28;20173;-81
2021/06/11 06:51:51;;;;;;;7.60;1.90;;;21.40;99.90;;;;;;5076701;28;20198;-81
2021/06/11 06:54:16;;;;;;;2.88;2.20;;;22.10;99.90;;;;;;5082573;28;20181;-83
2021/06/11 06:56:42;;;;;;;3.78;2.00;;;23.30;99.90;;;;;;5080425;28;20223;-82
2021/06/11 06:59:08;;;;;;;5.30;1.98;;;24.10;99.90;;;;;;5074113;28;20245;-81
2021/06/11 07:01:33;;;;;;;2.72;1.83;;;24.40;99.90;;;;;;5073386;28;20203;-82
2021/06/11 07:04:01;;;;;;;2.65;2.00;;;24.70;99.90;;;;;;5073247;28;20201;-81
2021/06/11 07:06:28;;;;;;;2.92;2.00;;;25.20;99.90;;;;;;5072871;28;20158;-81
2021/06/11 07:08:54;;;;;;;3.90;2.50;;;26.20;99.90;;;;;;5071649;28;20713;-81
2021/06/11 07:11:20;;;;;;;3.10;2.25;;;26.90;99.90;;;;;;5073186;28;20209;-81
2021/06/11 07:13:46;;;;;;;2.55;1.75;;;27.00;99.90;;;;;;5073117;28;20174;-82
2021/06/11 07:16:12;;;;;;;1.75;1.65;;;27.50;99.90;;;;;;5072410;28;20202;-81
2021/06/11 07:18:38;;;;;;;2.30;1.40;;;27.50;99.90;;;;;;5071644;28;20197;-81
2021/06/11 07:21:08;;;;;;;4.20;2.05;;;28.00;99.90;;;;;;5072247;28;20433;-81
2021/06/11 07:23:35;;;;;;;1.92;1.75;;;27.80;99.90;;;;;;5072404;28;20239;-81
2021/06/11 07:26:05;;;;;;;6.85;1.63;;;28.10;99.90;;;;;;5071578;28;20170;-81
2021/06/11 07:28:31;;;;;;;1.85;1.70;;;28.60;99.90;;;;;;5076527;28;20181;-81
2021/06/11 07:30:57;;;;;;;9.80;1.90;;;28.10;99.90;;;;;;5073999;28;20693;-81
2021/06/11 07:33:23;;;;;;;4.75;1.48;;;27.80;99.90;;;;;;5075962;28;20167;-80
2021/06/11 07:35:49;;;;;;;8.93;1.55;;;28.00;99.90;;;;;;5073111;28;20171;-80
2021/06/11 07:38:15;;;;;;;2.97;1.60;;;28.40;99.90;;;;;;5091419;22;20217;-81
2021/06/11 07:40:41;;;;;;;5.38;1.60;;;28.50;99.90;;;;;;5075964;28;20208;-81
2021/06/11 07:43:07;;;;;;;4.03;1.70;;;28.70;99.90;;;;;;5094084;28;20172;-93
2021/06/11 07:45:33;;;;;;;6.72;1.17;;;28.80;99.90;;;;;;5101299;28;20173;-81
2021/06/11 07:47:59;;;;;;;8.32;2.38;;;28.10;99.90;;;;;;5102350;28;20177;-80
2021/06/11 07:50:25;;;;;;;1.65;1.25;;;27.80;99.90;;;;;;5101400;28;20553;-80
2021/06/11 07:52:50;;;;;;;3.05;1.10;;;27.30;99.90;;;;;;5107572;28;20138;-83
2021/06/11 07:55:17;;;;;;;4.88;1.08;;;26.60;99.90;;;;;;5110148;28;20648;-82
2021/06/11 07:57:44;;;;;;;3.22;1.15;;;26.40;99.90;;;;;;5113831;28;20164;-81
2021/06/11 08:00:10;;;;;;;0.80;0.80;;;26.10;99.90;;;;;;5108864;28;20212;-81
2021/06/11 08:02:36;;;;;;;1.00;0.88;;;25.40;99.90;;;;;;5099433;28;20702;-81
2021/06/11 08:05:02;;;;;;;5.38;1.30;;;24.80;99.90;;;;;;5099150;28;20165;-81
2021/06/11 08:07:31;;;;;;;2.45;1.50;;;24.70;99.90;;;;;;5100243;28;20232;-82
2021/06/11 08:09:59;;;;;;;2.15;0.90;;;24.60;99.90;;;;;;5101678;28;20213;-82
2021/06/11 08:12:26;;;;;;;1.17;1.00;;;24.60;99.90;;;;;;5094876;28;20189;-81
2021/06/11 08:14:52;;;;;;;1.10;1.00;;;24.40;99.90;;;;;;5093686;28;20165;-81
2021/06/11 08:17:17;;;;;;;1.90;1.33;;;24.30;99.90;;;;;;5094222;28;20645;-86
2021/06/11 08:19:43;;;;;;;2.10;0.93;;;24.30;99.90;;;;;;5092467;28;20609;-84
2021/06/11 08:22:09;;;;;;;2.75;1.10;;;24.30;99.90;;;;;;5093611;28;20162;-81
2021/06/11 08:24:35;;;;;;;3.25;1.15;;;24.20;99.90;;;;;;5094329;28;20162;-87
2021/06/11 08:27:00;;;;;;;2.42;1.10;;;24.00;99.90;;;;;;5094430;28;20165;-83
2021/06/11 08:29:26;;;;;;;2.65;0.98;;;24.00;99.90;;;;;;5094579;28;20569;-81
2021/06/11 08:31:52;;;;;;;3.65;1.45;;;24.10;99.90;;;;;;5093897;28;20209;-81
2021/06/11 08:34:18;;;;;;;5.00;1.20;;;24.10;99.90;;;;;;5094149;28;20162;-90
2021/06/11 08:36:44;;;;;;;3.72;1.75;;;24.10;99.90;;;;;;5093587;28;20192;-81
2021/06/11 08:39:10;;;;;;;9.55;1.60;;;24.00;99.90;;;;;;5092502;28;20272;-90
2021/06/11 08:41:36;;;;;;;1.25;1.15;;;24.10;99.90;;;;;;5092963;28;20250;-78
2021/06/11 08:44:02;;;;;;;2.40;1.23;;;24.30;99.90;;;;;;5093152;28;20177;-82
2021/06/11 08:46:28;;;;;;;7.55;1.10;;;24.30;99.90;;;;;;5092283;28;20173;-83
2021/06/11 08:48:55;;;;;;;1.20;1.10;;;24.50;99.90;;;;;;5092938;28;20169;-85
2021/06/11 08:51:21;;;;;;;1.98;1.15;;;24.70;99.90;;;;;;5091609;28;20685;-82
2021/06/11 08:53:47;;;;;;;1.98;1.13;;;24.70;99.90;;;;;;5093053;28;20217;-79
2021/06/11 08:56:13;;;;;;;1.33;1.08;;;24.90;99.90;;;;;;5092499;28;20211;-78
2021/06/11 08:58:39;;;;;;;1.70;1.00;;;25.00;99.90;;;;;;5093160;28;20189;-82
2021/06/11 09:01:06;;;;;;;7.68;1.02;;;24.90;99.90;;;;;;5093023;28;20188;-80
2021/06/11 09:03:43;;;;;;;2.70;1.10;;;24.90;99.90;;;;;;5092004;28;20251;-85
2021/06/11 09:06:12;;;;;;;7.72;1.13;;;24.80;99.90;;;;;;5092957;28;20305;-80
2021/06/11 09:08:49;;;;;;;5.63;1.00;;;24.60;99.90;;;;;;5093316;28;20174;-79
2021/06/11 09:11:24;;;;;;;7.57;1.30;;;24.70;99.90;;;;;;5093590;28;20296;-90
2021/06/11 09:14:07;;;;;;;7.35;1.58;;;24.80;99.90;;;;;;5097012;28;20609;-87
2021/06/11 09:16:52;;;;;;;5.95;1.30;;;24.90;99.90;;;;;;5097249;28;20686;-88
2021/06/11 09:19:23;;;;;;;1.45;1.17;;;25.10;99.90;;;;;;5099023;28;20166;-85
2021/06/11 09:21:55;;;;;;;3.25;0.75;;;24.90;99.90;;;;;;5096349;28;20209;-81
2021/06/11 09:24:30;;;;;;;8.52;1.33;;;25.00;99.90;;;;;;5093046;28;20256;-82
2021/06/11 09:27:08;;;;;;;1.30;1.08;;;25.00;99.90;;;;;;5092407;28;20204;-82
2021/06/11 09:29:56;;;;;;;2.22;0.98;;;25.00;99.90;;;;;;5084094;28;20579;-80
2021/06/11 09:32:29;;;;;;;1.67;0.80;;;25.20;99.90;;;;;;5088530;28;20612;-83
2021/06/11 09:35:06;;;;;;;5.38;0.82;;;25.40;99.90;;;;;;5090862;28;20634;-82
2021/06/11 09:37:36;;;;;;;3.28;1.10;;;25.50;99.90;;;;;;5093480;28;20332;-81
2021/06/11 09:40:07;;;;;;;1.60;0.95;;;25.50;99.90;;;;;;5094545;28;20198;-81
2021/06/11 09:42:45;;;;;;;1.13;0.88;;;25.50;99.90;;;;;;5090981;28;20178;-80
2021/06/11 09:45:12;;;;;;;0.75;0.70;;;25.60;99.90;;;;;;5092181;28;20215;-81
2021/06/11 09:47:42;;;;;;;3.45;0.93;;;25.70;99.90;;;;;;5093624;28;20606;-81
2021/06/11 09:50:18;;;;;;;7.30;0.90;;;25.70;99.90;;;;;;5091417;28;20185;-81
2021/06/11 09:53:06;;;;;;;1.50;1.13;;;25.40;99.90;;;;;;5090471;28;20181;-81
2021/06/11 09:55:40;;;;;;;1.50;1.20;;;25.50;99.90;;;;;;5092479;28;20271;-81
2021/06/11 09:58:16;;;;;;;1.10;1.05;;;25.60;99.90;;;;;;5093450;28;20170;-81
2021/06/11 10:01:21;;;;;;;1.85;1.20;;;25.70;99.90;;;;;;5092545;28;20193;-80
2021/06/11 10:03:50;;;;;;;8.93;1.13;;;25.40;99.90;;;;;;5028908;28;20214;-81
2021/06/11 10:06:18;;;;;;;1.45;1.00;;;25.60;99.90;;;;;;5014331;28;20164;-81
2021/06/11 10:08:48;;;;;;;1.27;1.10;;;25.80;99.90;;;;;;5052417;28;20240;-81
2021/06/11 10:11:15;;;;;;;1.85;1.38;;;25.80;99.90;;;;;;5073024;28;20279;-80
2021/06/11 10:13:42;;;;;;;1.30;1.02;;;25.80;99.90;;;;;;5091717;28;20178;-81
2021/06/11 10:16:10;;;;;;;2.33;1.15;;;25.90;99.90;;;;;;5094493;28;20561;-81
2021/06/11 10:18:36;;;;;;;0.93;0.93;;;25.90;99.90;;;;;;5095352;28;20200;-81
2021/06/11 10:21:04;;;;;;;1.15;0.75;;;26.10;99.90;;;;;;5093756;28;20185;-81
2021/06/11 10:24:10;;;;;;;1.33;1.15;;;26.30;99.90;;;;;;5095239;28;20243;-80
2021/06/11 10:26:36;;;;;;;1.73;1.10;;;26.50;99.90;;;;;;5096835;28;20264;-81
2021/06/11 10:29:02;;;;;;;2.70;1.70;;;26.70;99.90;;;;;;5096732;28;20162;-81
2021/06/11 10:31:35;;;;;;;1.70;1.42;;;26.70;99.90;;;;;;5092784;28;20217;-82
2021/06/11 10:34:04;;;;;;;4.32;1.45;;;26.70;99.90;;;;;;5094102;28;20205;-82
2021/06/11 10:36:30;;;;;;;1.73;1.50;;;26.70;99.90;;;;;;5092044;28;20679;-82
2021/06/11 10:38:57;;;;;;;12.70;1.25;;;26.70;99.90;;;;;;5091382;28;20271;-82
2021/06/11 10:41:23;;;;;;;2.58;1.30;;;26.30;99.90;;;;;;5092477;28;20197;-82
2021/06/11 10:43:50;;;;;;;1.70;1.40;;;26.10;99.90;;;;;;5092130;28;20174;-83
2021/06/11 10:46:26;;;;;;;3.53;1.55;;;25.90;99.90;;;;;;5091444;28;20622;-82
2021/06/11 10:49:00;;;;;;;2.15;1.13;;;26.10;99.90;;;;;;5090711;28;20174;-82
2021/06/11 10:51:47;;;;;;;1.63;1.20;;;26.20;99.90;;;;;;5091010;28;20205;-81
2021/06/11 10:54:29;;;;;;;1.30;1.20;;;26.20;99.90;;;;;;5091404;28;20177;-82
2021/06/11 10:56:58;;;;;;;1.10;1.05;;;26.00;99.90;;;;;;5090390;28;20172;-81
2021/06/11 10:59:35;;;;;;;0.85;0.85;;;26.00;99.90;;;;;;5093418;28;20249;-82
2021/06/11 11:02:02;;;;;;;1.02;1.00;;;26.10;99.90;;;;;;5093389;28;20695;-85
2021/06/11 11:04:29;;;;;;;4.47;0.95;;;26.10;99.90;;;;;;5091936;28;20212;-83
2021/06/11 11:06:55;;;;;;;2.88;1.13;;;26.10;99.90;;;;;;5092269;28;20256;-80
2021/06/11 11:09:21;;;;;;;4.63;1.70;;;26.10;99.90;;;;;;5094167;28;20198;-86
2021/06/11 11:11:47;;;;;;;2.50;1.25;;;26.30;99.90;;;;;;5092478;28;20250;-89
2021/06/11 11:14:36;;;;;;;4.50;0.95;;;26.30;99.90;;;;;;5092187;28;20202;-84
2021/06/11 11:17:02;;;;;;;1.70;0.98;;;26.40;99.90;;;;;;5094108;28;20162;-84
2021/06/11 11:20:02;;;;;;;7.22;0.98;;;26.60;99.90;;;;;;5076704;28;20166;-83
2021/06/11 11:22:31;;;;;;;7.15;1.38;;;26.70;99.90;;;;;;5094639;28;20219;-85
2021/06/11 11:24:58;;;;;;;2.47;0.98;;;26.70;99.90;;;;;;5100135;28;20188;-83
2021/06/11 11:27:25;;;;;;;2.22;0.75;;;26.80;99.90;;;;;;5098914;28;20535;-91
2021/06/11 11:29:52;;;;;;;2.65;0.82;;;26.70;99.90;;;;;;5099519;28;20185;-90
2021/06/11 11:32:18;;;;;;;5.88;0.80;;;26.60;99.90;;;;;;5097743;28;20201;-89
2021/06/11 11:34:44;;;;;;;1.83;0.77;;;26.50;99.90;;;;;;5094763;28;20163;-82
2021/06/11 11:37:12;;;;;;;1.02;0.93;;;26.40;99.90;;;;;;5092222;28;20174;-83
2021/06/11 11:39:39;;;;;;;7.43;1.30;;;26.40;99.90;;;;;;5094474;28;20170;-80
2021/06/11 11:42:05;;;;;;;0.55;0.50;;;26.40;99.90;;;;;;5094195;28;20562;-81
2021/06/11 11:44:31;;;;;;;2.78;0.68;;;26.50;99.90;;;;;;5093763;28;20595;-81
2021/06/11 11:46:56;;;;;;;1.20;1.10;;;26.60;99.90;;;;;;5092631;28;20180;-80
2021/06/11 11:49:23;;;;;;;1.15;0.63;;;26.50;99.90;;;;;;5095680;28;20286;-87
2021/06/11 11:51:49;;;;;;;1.50;0.70;;;26.40;99.90;;;;;;5095550;28;20216;-96
2021/06/11 11:54:15;;;;;;;1.45;0.90;;;26.30;99.90;;;;;;5094522;28;20162;-93
2021/06/11 11:56:41;;;;;;;0.70;0.65;;;26.30;99.90;;;;;;5094143;28;20223;-84
2021/06/11 11:59:07;;;;;;;2.40;0.88;;;26.40;99.90;;;;;;5093550;28;20181;-88
2021/06/11 12:01:42;;;;;;;1.63;1.10;;;26.30;99.90;;;;;;5093647;28;20338;-89
2021/06/11 12:04:08;;;;;;;4.07;0.90;;;26.30;99.90;;;;;;5092834;28;20276;-83
2021/06/11 12:06:34;;;;;;;5.35;0.90;;;26.20;99.90;;;;;;5092075;28;20894;-84
2021/06/11 12:09:00;;;;;;;1.85;0.82;;;26.30;99.90;;;;;;5091926;28;20532;-82
2021/06/11 12:11:27;;;;;;;1.05;0.85;;;26.30;99.90;;;;;;5092124;28;20208;-80
2021/06/11 12:13:52;;;;;;;0.80;0.80;;;26.30;99.90;;;;;;5093334;28;20176;-82
2021/06/11 12:16:18;;;;;;;2.08;1.02;;;26.40;99.90;;;;;;5092689;28;20245;-82
2021/06/11 12:18:44;;;;;;;1.50;1.08;;;26.40;99.90;;;;;;5091882;28;20238;-83
2021/06/11 12:21:09;;;;;;;1.70;1.42;;;26.40;99.90;;;;;;5092193;28;20185;-85
2021/06/11 12:23:36;;;;;;;3.38;1.70;;;26.50;99.90;;;;;;5087433;28;20182;-85
2021/06/11 12:26:03;;;;;;;1.45;1.17;;;26.40;99.90;;;;;;5091499;28;20193;-82
2021/06/11 12:28:29;;;;;;;1.45;1.13;;;26.50;99.90;;;;;;5090916;28;20162;-81
2021/06/11 12:30:55;;;;;;;3.53;1.15;;;26.60;99.90;;;;;;5089103;28;20213;-81
2021/06/11 12:33:21;;;;;;;1.08;0.93;;;26.80;99.90;;;;;;5091057;28;20238;-81
2021/06/11 12:35:47;;;;;;;1.42;1.00;;;26.70;99.90;;;;;;5091872;28;20166;-82
2021/06/11 12:38:13;;;;;;;1.63;1.52;;;26.80;99.90;;;;;;5092954;28;20235;-85
2021/06/11 12:40:43;;;;;;;1.35;1.25;;;26.70;99.90;;;;;;5092773;28;20182;-82
2021/06/11 12:43:08;;;;;;;4.15;1.50;;;26.40;99.90;;;;;;5093061;28;20224;-82
2021/06/11 12:45:36;;;;;;;2.10;1.10;;;26.40;99.90;;;;;;5091789;28;20169;-83
2021/06/11 12:48:02;;;;;;;1.13;1.00;;;26.40;99.90;;;;;;5095092;28;20169;-81
2021/06/11 12:50:27;;;;;;;1.23;1.10;;;26.60;99.90;;;;;;5097968;28;20570;-88